Time;durP1;ratioP1;P1;durP2;ratioP2;P2;SDS_P1;SDS_P2;PMS_P1;PMS_P2;Temp;Humidity;BMP_temperature;BMP_pressure;BME280_temperature;BME280_humidity;BME280_pressure;Samples;Min_cycle;Max_cycle;Signal;HPM_P1;HPM_P2
2022/01/13 00:01:25;;;;;;;76.95;29.08;;;;;;;;;;8333014;28;20046;-73
2022/01/13 00:05:30;;;;;;;62.05;24.55;;;;;;;;;;8332808;28;20127;-73
2022/01/13 00:09:33;;;;;;;64.25;22.42;;;;;;;;;;8332843;28;20050;-81
2022/01/13 00:13:47;;;;;;;62.22;23.10;;;;;;;;;;8333095;28;20169;-73
2022/01/13 00:18:03;;;;;;;88.43;25.90;;;;;;;;;;8332395;28;20498;-73
2022/01/13 00:22:18;;;;;;;73.95;25.25;;;;;;;;;;8332879;28;20478;-73
2022/01/13 00:26:23;;;;;;;72.90;24.17;;;;;;;;;;8332676;28;20046;-73
2022/01/13 00:30:26;;;;;;;78.50;25.15;;;;;;;;;;8332142;28;20612;-73
2022/01/13 00:34:29;;;;;;;73.30;25.85;;;;;;;;;;8332069;28;20528;-73
2022/01/13 00:38:33;;;;;;;74.22;25.27;;;;;;;;;;8332342;28;20054;-73
2022/01/13 00:42:36;;;;;;;71.03;23.88;;;;;;;;;;8331686;28;20053;-73
2022/01/13 00:46:43;;;;;;;77.95;25.60;;;;;;;;;;8331081;28;20107;-73
2022/01/13 00:50:47;;;;;;;70.18;24.05;;;;;;;;;;8331656;28;20041;-73
2022/01/13 00:54:52;;;;;;;70.18;24.33;;;;;;;;;;8331556;28;20049;-73
2022/01/13 00:58:54;;;;;;;64.95;24.92;;;;;;;;;;8331435;28;20056;-73
2022/01/13 01:02:57;;;;;;;68.72;23.90;;;;;;;;;;8331121;28;20050;-73
2022/01/13 01:07:00;;;;;;;78.90;25.63;;;;;;;;;;8331174;28;20068;-73
2022/01/13 01:11:04;;;;;;;71.18;23.58;;;;;;;;;;8331088;28;20049;-73
2022/01/13 01:15:09;;;;;;;70.80;23.33;;;;;;;;;;8331506;28;20535;-73
2022/01/13 01:19:13;;;;;;;76.85;24.15;;;;;;;;;;8330973;28;20402;-73
2022/01/13 01:23:20;;;;;;;82.78;29.52;;;;;;;;;;8330767;28;20512;-73
2022/01/13 01:27:28;;;;;;;82.00;28.58;;;;;;;;;;8330767;28;20052;-73
2022/01/13 01:31:34;;;;;;;80.28;24.55;;;;;;;;;;8330847;28;20049;-74
2022/01/13 01:35:38;;;;;;;67.38;24.25;;;;;;;;;;8330999;28;20049;-73
2022/01/13 01:39:42;;;;;;;80.28;24.13;;;;;;;;;;8331357;28;20046;-74
2022/01/13 01:43:46;;;;;;;60.88;22.30;;;;;;;;;;8330457;28;20053;-73
2022/01/13 01:47:51;;;;;;;78.25;24.23;;;;;;;;;;8360916;28;20041;-81
2022/01/13 01:51:55;;;;;;;66.70;22.58;;;;;;;;;;8361031;28;20045;-73
2022/01/13 01:55:58;;;;;;;72.47;22.40;;;;;;;;;;8363069;28;20048;-73
2022/01/13 02:00:03;;;;;;;75.22;26.27;;;;;;;;;;8368600;28;20481;-73
2022/01/13 02:04:07;;;;;;;63.08;20.30;;;;;;;;;;8368524;28;20040;-73
2022/01/13 02:08:09;;;;;;;62.80;20.20;;;;;;;;;;8368066;28;20051;-74
2022/01/13 02:12:20;;;;;;;60.70;20.45;;;;;;;;;;8368327;28;20397;-73
2022/01/13 02:16:38;;;;;;;55.10;19.55;;;;;;;;;;8366794;28;20719;-74
2022/01/13 02:20:48;;;;;;;74.45;20.55;;;;;;;;;;8366824;28;20060;-73
2022/01/13 02:24:50;;;;;;;57.90;19.92;;;;;;;;;;8366921;28;20053;-74
2022/01/13 02:28:53;;;;;;;47.83;18.38;;;;;;;;;;8367718;28;20049;-74
2022/01/13 02:32:56;;;;;;;53.97;19.67;;;;;;;;;;8365734;28;20245;-77
2022/01/13 02:37:00;;;;;;;70.50;23.33;;;;;;;;;;8366925;28;20041;-73
2022/01/13 02:41:03;;;;;;;65.70;20.10;;;;;;;;;;8367949;28;20507;-74
2022/01/13 02:45:15;;;;;;;58.35;20.52;;;;;;;;;;8368964;28;20059;-73
2022/01/13 02:49:19;;;;;;;53.50;19.45;;;;;;;;;;8367354;28;20051;-73
2022/01/13 02:53:24;;;;;;;52.00;18.65;;;;;;;;;;8368822;28;20404;-73
2022/01/13 02:57:27;;;;;;;57.13;18.55;;;;;;;;;;8368457;28;20040;-73
2022/01/13 03:01:30;;;;;;;54.92;18.35;;;;;;;;;;8368342;28;20049;-73
2022/01/13 03:05:37;;;;;;;62.58;21.75;;;;;;;;;;8368604;28;20051;-74
2022/01/13 03:09:42;;;;;;;59.88;19.95;;;;;;;;;;8367271;28;20111;-73
2022/01/13 03:13:44;;;;;;;48.97;17.17;;;;;;;;;;8368083;28;20045;-73
2022/01/13 03:17:47;;;;;;;54.35;18.27;;;;;;;;;;8367799;28;20057;-73
2022/01/13 03:21:49;;;;;;;48.22;17.65;;;;;;;;;;8367622;28;20552;-74
2022/01/13 03:25:54;;;;;;;47.45;16.08;;;;;;;;;;8367841;28;20048;-74
2022/01/13 03:29:56;;;;;;;48.35;17.60;;;;;;;;;;8367467;28;20051;-74
2022/01/13 03:33:59;;;;;;;49.13;17.33;;;;;;;;;;8367682;28;20045;-74
2022/01/13 03:38:01;;;;;;;55.47;19.25;;;;;;;;;;8367427;28;20049;-73
2022/01/13 03:42:06;;;;;;;49.92;16.80;;;;;;;;;;8366801;28;20064;-73
2022/01/13 03:46:10;;;;;;;43.63;16.10;;;;;;;;;;8367048;28;20171;-73
2022/01/13 03:50:13;;;;;;;51.25;17.88;;;;;;;;;;8366690;28;20049;-73
2022/01/13 03:55:22;;;;;;;54.53;21.17;;;;;;;;;;8366823;28;20045;-73
2022/01/13 03:59:58;;;;;;;49.05;20.88;;;;;;;;;;8366897;28;20052;-74
2022/01/13 04:04:01;;;;;;;45.45;18.42;;;;;;;;;;8352802;28;20458;-74
2022/01/13 04:08:04;;;;;;;67.10;25.90;;;;;;;;;;8366481;28;20048;-73
2022/01/13 04:12:10;;;;;;;42.08;16.02;;;;;;;;;;8365744;28;20045;-73
2022/01/13 04:16:16;;;;;;;45.22;19.63;;;;;;;;;;8365702;28;20044;-74
2022/01/13 04:20:19;;;;;;;42.15;14.73;;;;;;;;;;8364545;28;20053;-73
2022/01/13 04:24:22;;;;;;;55.25;16.40;;;;;;;;;;8365504;28;20082;-73
2022/01/13 04:28:27;;;;;;;46.00;15.18;;;;;;;;;;8365145;28;20063;-73
2022/01/13 04:32:32;;;;;;;54.33;15.75;;;;;;;;;;8365708;28;20045;-73
2022/01/13 04:36:34;;;;;;;45.28;18.30;;;;;;;;;;8365955;28;20119;-73
2022/01/13 04:40:44;;;;;;;47.42;16.73;;;;;;;;;;8365446;28;20044;-73
2022/01/13 04:44:46;;;;;;;46.63;21.13;;;;;;;;;;8364781;28;20052;-73
2022/01/13 04:48:50;;;;;;;39.40;15.40;;;;;;;;;;8364571;28;20045;-73
2022/01/13 04:52:53;;;;;;;48.42;18.58;;;;;;;;;;8364505;28;20049;-73
2022/01/13 04:57:07;;;;;;;40.67;15.85;;;;;;;;;;8364372;28;20045;-73
2022/01/13 05:01:10;;;;;;;38.60;16.23;;;;;;;;;;8365053;28;20045;-75
2022/01/13 05:05:14;;;;;;;37.08;17.17;;;;;;;;;;8364630;28;20424;-73
2022/01/13 05:09:20;;;;;;;48.15;21.45;;;;;;;;;;8364399;28;20120;-73
2022/01/13 05:13:22;;;;;;;41.47;15.85;;;;;;;;;;8364929;28;20048;-73
2022/01/13 05:17:57;;;;;;;41.35;16.25;;;;;;;;;;8364292;28;20516;-73
2022/01/13 05:26:15;;;;;;;38.03;13.32;;;;;;;;;;8364276;28;20052;-73
2022/01/13 05:30:19;;;;;;;37.45;15.45;;;;;;;;;;8364536;28;20435;-73
2022/01/13 05:34:22;;;;;;;43.17;16.80;;;;;;;;;;8363575;28;20049;-73
2022/01/13 05:38:26;;;;;;;43.85;16.25;;;;;;;;;;8363785;28;20052;-73
2022/01/13 05:42:28;;;;;;;42.45;15.57;;;;;;;;;;8364344;28;20131;-74
2022/01/13 05:46:31;;;;;;;46.45;15.55;;;;;;;;;;8363833;28;20074;-73
2022/01/13 05:50:34;;;;;;;38.15;16.48;;;;;;;;;;8364180;28;20045;-73
2022/01/13 05:54:38;;;;;;;37.88;15.10;;;;;;;;;;8363693;28;20049;-74
2022/01/13 05:58:41;;;;;;;35.55;14.05;;;;;;;;;;8364505;28;20460;-73
2022/01/13 06:02:44;;;;;;;38.90;13.60;;;;;;;;;;8363530;28;20041;-73
2022/01/13 06:06:47;;;;;;;37.90;13.93;;;;;;;;;;8363616;28;20512;-73
2022/01/13 06:10:51;;;;;;;36.45;13.55;;;;;;;;;;8363380;28;20053;-73
2022/01/13 06:14:53;;;;;;;28.45;12.90;;;;;;;;;;8363802;28;20469;-73
2022/01/13 06:18:56;;;;;;;36.47;14.38;;;;;;;;;;8363178;28;20075;-73
2022/01/13 06:23:00;;;;;;;32.90;14.60;;;;;;;;;;8363007;28;20041;-73
2022/01/13 06:27:04;;;;;;;27.10;12.70;;;;;;;;;;8363601;28;20405;-73
2022/01/13 06:31:07;;;;;;;33.55;13.60;;;;;;;;;;8363510;28;20488;-73
2022/01/13 06:35:11;;;;;;;30.83;13.90;;;;;;;;;;8362663;28;20045;-73
2022/01/13 06:39:13;;;;;;;35.95;14.07;;;;;;;;;;8362263;28;20044;-73
2022/01/13 06:43:18;;;;;;;29.10;13.20;;;;;;;;;;8365979;28;20489;-73
2022/01/13 06:47:20;;;;;;;35.92;14.52;;;;;;;;;;8369056;28;20548;-72
2022/01/13 06:51:23;;;;;;;39.97;16.48;;;;;;;;;;8369670;28;20052;-74
2022/01/13 06:55:26;;;;;;;46.70;20.10;;;;;;;;;;8368106;28;20055;-73
2022/01/13 06:59:30;;;;;;;33.63;14.50;;;;;;;;;;8368624;28;20468;-72
2022/01/13 07:03:32;;;;;;;41.58;18.35;;;;;;;;;;8367813;28;20049;-73
2022/01/13 07:07:40;;;;;;;43.13;18.60;;;;;;;;;;8364799;28;20049;-73
2022/01/13 07:11:44;;;;;;;50.10;20.17;;;;;;;;;;8366168;28;20051;-73
2022/01/13 07:15:50;;;;;;;49.35;20.27;;;;;;;;;;8367437;28;20053;-72
2022/01/13 07:19:53;;;;;;;44.00;15.75;;;;;;;;;;8367610;28;20048;-72
2022/01/13 07:23:57;;;;;;;30.80;14.65;;;;;;;;;;8367093;28;20071;-72
2022/01/13 07:27:59;;;;;;;42.85;16.80;;;;;;;;;;8366699;28;20044;-72
2022/01/13 07:32:04;;;;;;;43.80;18.27;;;;;;;;;;8366992;28;20044;-72
2022/01/13 07:36:07;;;;;;;36.30;15.43;;;;;;;;;;8367273;28;20041;-73
2022/01/13 07:40:13;;;;;;;50.72;23.17;;;;;;;;;;8367099;28;20053;-78
2022/01/13 07:44:18;;;;;;;37.10;16.98;;;;;;;;;;8364744;28;20120;-73
2022/01/13 07:48:24;;;;;;;35.05;13.90;;;;;;;;;;8364500;28;20484;-73
2022/01/13 07:52:27;;;;;;;36.85;16.05;;;;;;;;;;8365864;28;20049;-72
2022/01/13 07:56:30;;;;;;;41.90;17.73;;;;;;;;;;8365312;28;20052;-73
2022/01/13 08:00:33;;;;;;;43.28;16.50;;;;;;;;;;8366069;28;20059;-73
2022/01/13 08:04:37;;;;;;;59.88;24.02;;;;;;;;;;8373693;28;20609;-73
2022/01/13 08:08:40;;;;;;;88.45;34.15;;;;;;;;;;8396442;28;20570;-73
2022/01/13 08:12:43;;;;;;;38.50;15.85;;;;;;;;;;8392962;28;20052;-73
2022/01/13 08:16:45;;;;;;;52.67;20.33;;;;;;;;;;8366006;28;20048;-73
2022/01/13 08:20:51;;;;;;;47.22;18.42;;;;;;;;;;8364227;28;20049;-74
2022/01/13 08:24:53;;;;;;;35.08;15.75;;;;;;;;;;8363639;28;20044;-74
2022/01/13 08:28:56;;;;;;;31.85;14.13;;;;;;;;;;8364938;28;20064;-73
2022/01/13 08:32:59;;;;;;;33.47;13.68;;;;;;;;;;8364649;28;20464;-73
2022/01/13 08:37:03;;;;;;;36.72;15.93;;;;;;;;;;8362933;28;20083;-73
2022/01/13 08:41:06;;;;;;;38.35;15.77;;;;;;;;;;8363378;28;20048;-73
2022/01/13 08:45:12;;;;;;;32.45;14.32;;;;;;;;;;8365061;28;20374;-73
2022/01/13 08:49:15;;;;;;;37.58;16.40;;;;;;;;;;8364610;28;20538;-73
2022/01/13 08:53:21;;;;;;;28.08;13.30;;;;;;;;;;8364354;28;20132;-73
2022/01/13 08:57:25;;;;;;;33.45;14.95;;;;;;;;;;8364859;28;20045;-73
2022/01/13 09:01:30;;;;;;;41.13;19.60;;;;;;;;;;8364569;28;20492;-73
2022/01/13 09:05:33;;;;;;;32.88;14.85;;;;;;;;;;8363499;28;20045;-73
2022/01/13 09:09:39;;;;;;;31.80;15.27;;;;;;;;;;8364097;28;20481;-73
2022/01/13 09:13:42;;;;;;;31.63;13.73;;;;;;;;;;8364482;28;20049;-73
2022/01/13 09:17:51;;;;;;;32.55;14.05;;;;;;;;;;8363495;28;20052;-73
2022/01/13 09:21:55;;;;;;;46.08;19.42;;;;;;;;;;8363740;28;20041;-73
2022/01/13 09:25:59;;;;;;;39.00;17.05;;;;;;;;;;8363630;28;20083;-73
2022/01/13 09:30:03;;;;;;;33.85;15.63;;;;;;;;;;8363552;28;20049;-73
2022/01/13 09:34:07;;;;;;;37.58;15.88;;;;;;;;;;8363455;28;20041;-73
2022/01/13 09:38:10;;;;;;;27.88;13.15;;;;;;;;;;8363937;28;20049;-73
2022/01/13 09:42:15;;;;;;;24.55;11.10;;;;;;;;;;8363391;28;20045;-73
2022/01/13 09:46:19;;;;;;;32.47;15.88;;;;;;;;;;8363304;28;20119;-73
2022/01/13 09:50:22;;;;;;;34.38;14.32;;;;;;;;;;8363745;28;20465;-74
2022/01/13 09:54:25;;;;;;;54.28;18.02;;;;;;;;;;8363672;28;20452;-73
2022/01/13 09:58:29;;;;;;;41.90;17.00;;;;;;;;;;8362355;28;20052;-73
2022/01/13 10:02:32;;;;;;;32.13;12.93;;;;;;;;;;8363156;28;20063;-73
2022/01/13 10:06:46;;;;;;;33.97;14.32;;;;;;;;;;8363455;28;20136;-73
2022/01/13 10:10:49;;;;;;;31.90;14.45;;;;;;;;;;8363108;28;20041;-73
2022/01/13 10:19:30;;;;;;;44.03;17.00;;;;;;;;;;8367574;28;20053;-73
2022/01/13 10:23:33;;;;;;;32.83;15.25;;;;;;;;;;8369756;28;20045;-73
2022/01/13 10:27:39;;;;;;;43.70;18.77;;;;;;;;;;8369498;28;20053;-74
2022/01/13 10:31:52;;;;;;;41.88;16.58;;;;;;;;;;8368993;28;20489;-74
2022/01/13 10:36:05;;;;;;;44.70;19.60;;;;;;;;;;8368774;28;20049;-73
2022/01/13 10:40:13;;;;;;;43.45;18.02;;;;;;;;;;8368703;28;20044;-73
2022/01/13 10:44:18;;;;;;;42.92;16.48;;;;;;;;;;8368551;28;20128;-73
2022/01/13 10:48:24;;;;;;;51.20;19.80;;;;;;;;;;8368222;28;20412;-74
2022/01/13 10:52:28;;;;;;;45.55;18.77;;;;;;;;;;8368731;28;20124;-73
2022/01/13 10:56:32;;;;;;;46.33;17.40;;;;;;;;;;8368619;28;20401;-74
2022/01/13 11:00:36;;;;;;;47.15;20.85;;;;;;;;;;8367940;28;20041;-73
2022/01/13 11:04:41;;;;;;;40.63;16.08;;;;;;;;;;8368299;28;20052;-73
2022/01/13 11:08:45;;;;;;;45.88;17.17;;;;;;;;;;8368112;28;20151;-73
2022/01/13 11:12:56;;;;;;;42.22;16.80;;;;;;;;;;8368009;28;20095;-74
2022/01/13 11:16:59;;;;;;;54.40;19.33;;;;;;;;;;8367398;28;20450;-73
2022/01/13 11:21:05;;;;;;;44.90;18.58;;;;;;;;;;8367352;28;20122;-73
2022/01/13 11:25:10;;;;;;;47.67;20.83;;;;;;;;;;8367265;28;20452;-73
2022/01/13 11:29:14;;;;;;;51.35;19.95;;;;;;;;;;8366650;28;20041;-73
2022/01/13 11:33:16;;;;;;;42.17;15.98;;;;;;;;;;8367425;28;20401;-73
2022/01/13 11:37:21;;;;;;;51.75;18.23;;;;;;;;;;8366765;28;20493;-73
2022/01/13 11:41:24;;;;;;;46.95;18.85;;;;;;;;;;8366747;28;20048;-73
2022/01/13 11:45:28;;;;;;;42.42;18.27;;;;;;;;;;8366582;28;20114;-73
2022/01/13 11:49:42;;;;;;;44.55;17.15;;;;;;;;;;8366942;28;20186;-73
2022/01/13 11:54:02;;;;;;;48.08;18.42;;;;;;;;;;8366225;28;20045;-73
2022/01/13 11:58:12;;;;;;;43.35;17.70;;;;;;;;;;8368328;28;20113;-74
2022/01/13 12:02:26;;;;;;;50.90;18.85;;;;;;;;;;8371819;28;20072;-74
2022/01/13 12:06:42;;;;;;;99.03;35.75;;;;;;;;;;8365548;28;20055;-73
2022/01/13 12:10:52;;;;;;;55.88;20.67;;;;;;;;;;8365305;28;20602;-73
2022/01/13 12:15:19;;;;;;;53.83;19.45;;;;;;;;;;8364882;28;20048;-74
2022/01/13 12:19:32;;;;;;;52.40;18.75;;;;;;;;;;8364941;28;20057;-74
2022/01/13 12:23:44;;;;;;;58.53;20.98;;;;;;;;;;8365086;28;20072;-74
2022/01/13 12:27:53;;;;;;;51.95;18.15;;;;;;;;;;8365133;28;20461;-74
2022/01/13 12:31:58;;;;;;;111.75;30.95;;;;;;;;;;8365058;28;20049;-73
2022/01/13 12:36:04;;;;;;;100.60;27.23;;;;;;;;;;8364597;28;20132;-73
2022/01/13 12:40:16;;;;;;;59.53;20.15;;;;;;;;;;8364300;28;20492;-73
2022/01/13 12:45:27;;;;;;;57.28;19.27;;;;;;;;;;8364101;28;20071;-73
2022/01/13 12:48:49;;;;;;;85.45;26.02;;;;;;;;;;8364213;28;20041;-73
2022/01/13 12:53:07;;;;;;;84.60;26.73;;;;;;;;;;8364612;28;20481;-73
2022/01/13 12:57:10;;;;;;;56.25;19.23;;;;;;;;;;8364294;28;20140;-73
2022/01/13 13:01:22;;;;;;;76.88;24.52;;;;;;;;;;8363777;28;20045;-73
2022/01/13 13:05:37;;;;;;;62.42;19.70;;;;;;;;;;8364059;28;20059;-73
2022/01/13 13:09:39;;;;;;;76.72;21.35;;;;;;;;;;8364120;28;20052;-74
2022/01/13 13:13:45;;;;;;;56.75;19.77;;;;;;;;;;8363289;28;20057;-74
2022/01/13 13:17:51;;;;;;;60.80;21.75;;;;;;;;;;8363218;28;20053;-73
2022/01/13 13:21:54;;;;;;;60.53;20.70;;;;;;;;;;8363912;28;20072;-74
2022/01/13 13:26:03;;;;;;;63.65;20.95;;;;;;;;;;8363421;28;20382;-74
2022/01/13 13:30:07;;;;;;;61.72;21.30;;;;;;;;;;8363219;28;20056;-74
2022/01/13 13:34:15;;;;;;;64.30;21.38;;;;;;;;;;8393842;28;20040;-75
2022/01/13 13:38:18;;;;;;;77.45;23.08;;;;;;;;;;8396186;28;20122;-74
2022/01/13 13:42:26;;;;;;;77.47;24.95;;;;;;;;;;8396499;28;20049;-74
2022/01/13 13:46:29;;;;;;;88.38;26.42;;;;;;;;;;8396587;28;20049;-74
2022/01/13 13:50:35;;;;;;;63.40;21.77;;;;;;;;;;8396804;28;20052;-80
2022/01/13 13:54:39;;;;;;;61.92;20.58;;;;;;;;;;8403457;28;20123;-74
2022/01/13 13:58:42;;;;;;;80.03;23.92;;;;;;;;;;8402888;28;20051;-74
2022/01/13 14:02:50;;;;;;;75.50;20.85;;;;;;;;;;8403238;28;20149;-73
2022/01/13 14:06:54;;;;;;;76.00;22.77;;;;;;;;;;8397845;28;20393;-74
2022/01/13 14:11:07;;;;;;;80.38;24.17;;;;;;;;;;8385683;28;20098;-74
2022/01/13 14:15:22;;;;;;;68.40;21.70;;;;;;;;;;8402587;28;20044;-74
2022/01/13 14:19:25;;;;;;;62.60;20.60;;;;;;;;;;8401735;28;20049;-74
2022/01/13 14:23:31;;;;;;;70.07;20.63;;;;;;;;;;8402096;28;20045;-74
2022/01/13 14:27:34;;;;;;;95.82;28.52;;;;;;;;;;8401535;28;20052;-74
2022/01/13 14:31:40;;;;;;;67.50;19.98;;;;;;;;;;8402090;28;20048;-74
2022/01/13 14:35:55;;;;;;;70.32;21.83;;;;;;;;;;8401195;28;20056;-73
2022/01/13 14:40:15;;;;;;;97.30;27.33;;;;;;;;;;8396787;28;20044;-74
2022/01/13 14:44:20;;;;;;;155.32;43.40;;;;;;;;;;8364793;28;20049;-74
2022/01/13 14:48:28;;;;;;;234.05;61.08;;;;;;;;;;8343142;28;20075;-74
2022/01/13 14:52:31;;;;;;;239.43;69.35;;;;;;;;;;8367020;28;20071;-74
2022/01/13 14:56:37;;;;;;;218.55;65.18;;;;;;;;;;8367002;28;20533;-74
2022/01/13 15:00:44;;;;;;;177.40;51.97;;;;;;;;;;8367320;28;20044;-75
2022/01/13 15:04:53;;;;;;;155.23;51.67;;;;;;;;;;8366147;28;20511;-74
2022/01/13 15:09:00;;;;;;;74.22;25.75;;;;;;;;;;8367177;28;20059;-74
2022/01/13 15:13:08;;;;;;;136.30;54.92;;;;;;;;;;8367014;28;20057;-75
2022/01/13 15:17:11;;;;;;;127.93;48.95;;;;;;;;;;8367908;28;20061;-74
2022/01/13 15:21:25;;;;;;;69.28;22.95;;;;;;;;;;8399537;28;20499;-74
2022/01/13 15:25:43;;;;;;;73.57;27.73;;;;;;;;;;8399949;28;20075;-75
2022/01/13 15:30:00;;;;;;;89.07;28.38;;;;;;;;;;8400215;28;20129;-73
2022/01/13 15:34:16;;;;;;;68.75;24.52;;;;;;;;;;8399232;28;20049;-73
2022/01/13 15:38:41;;;;;;;60.58;22.20;;;;;;;;;;8399442;28;20040;-76
2022/01/13 15:43:00;;;;;;;62.33;22.20;;;;;;;;;;8398810;28;20044;-76
2022/01/13 15:47:36;;;;;;;62.72;22.73;;;;;;;;;;8399293;28;20476;-76
2022/01/13 15:51:50;;;;;;;55.45;20.73;;;;;;;;;;8399195;28;20609;-75
2022/01/13 15:56:28;;;;;;;62.60;23.17;;;;;;;;;;8398803;28;20063;-76
2022/01/13 16:00:45;;;;;;;74.18;25.88;;;;;;;;;;8398848;28;20052;-76
2022/01/13 16:05:09;;;;;;;53.08;19.38;;;;;;;;;;8398290;28;20064;-75
2022/01/13 16:09:40;;;;;;;62.67;24.30;;;;;;;;;;8398373;28;20052;-76
2022/01/13 16:14:02;;;;;;;51.92;18.73;;;;;;;;;;8398248;28;20488;-76
2022/01/13 16:18:25;;;;;;;54.10;20.48;;;;;;;;;;8397564;28;20052;-76
2022/01/13 16:22:49;;;;;;;49.30;18.73;;;;;;;;;;8398375;28;20048;-76
2022/01/13 16:27:08;;;;;;;51.08;18.98;;;;;;;;;;8397054;28;20045;-76
2022/01/13 16:31:44;;;;;;;58.67;22.15;;;;;;;;;;8397207;28;20056;-76
2022/01/13 16:36:02;;;;;;;52.95;18.30;;;;;;;;;;8397427;28;20045;-76
2022/01/13 16:40:20;;;;;;;59.22;21.73;;;;;;;;;;8397769;28;20064;-76
2022/01/13 16:44:28;;;;;;;71.82;25.45;;;;;;;;;;8397317;28;20052;-77
2022/01/13 16:49:01;;;;;;;63.25;21.13;;;;;;;;;;8396975;28;20396;-77
2022/01/13 16:53:28;;;;;;;52.08;18.92;;;;;;;;;;8397202;28;20098;-76
2022/01/13 16:58:07;;;;;;;65.97;24.98;;;;;;;;;;8397041;28;20389;-77
2022/01/13 17:02:26;;;;;;;54.95;21.10;;;;;;;;;;8396605;28;20123;-77
2022/01/13 17:07:05;;;;;;;49.42;20.02;;;;;;;;;;8396806;28;20156;-76
2022/01/13 17:11:22;;;;;;;56.08;20.40;;;;;;;;;;8396510;28;20527;-76
2022/01/13 17:15:30;;;;;;;47.97;18.65;;;;;;;;;;8396605;28;20135;-77
2022/01/13 17:19:34;;;;;;;52.40;20.13;;;;;;;;;;8387312;28;20053;-77
2022/01/13 17:23:37;;;;;;;107.25;36.28;;;;;;;;;;8363125;28;20102;-77
2022/01/13 17:27:40;;;;;;;55.08;22.13;;;;;;;;;;8361807;28;20041;-77
2022/01/13 17:31:44;;;;;;;73.32;24.63;;;;;;;;;;8362349;28;20403;-77
2022/01/13 17:35:47;;;;;;;48.92;18.85;;;;;;;;;;8361850;28;20049;-76
2022/01/13 17:39:50;;;;;;;53.33;18.95;;;;;;;;;;8361776;28;20041;-77
2022/01/13 17:43:53;;;;;;;40.60;16.55;;;;;;;;;;8361546;28;20041;-76
2022/01/13 17:47:58;;;;;;;63.70;23.48;;;;;;;;;;8361811;28;20049;-76
2022/01/13 17:52:01;;;;;;;53.67;18.63;;;;;;;;;;8361559;28;20052;-77
2022/01/13 17:56:05;;;;;;;70.18;24.35;;;;;;;;;;8362199;28;20558;-76
2022/01/13 18:00:09;;;;;;;48.22;17.63;;;;;;;;;;8361179;28;20072;-77
2022/01/13 18:04:14;;;;;;;54.80;21.25;;;;;;;;;;8330052;28;20057;-76
2022/01/13 18:08:17;;;;;;;55.05;21.58;;;;;;;;;;8329762;28;20485;-76
2022/01/13 18:12:24;;;;;;;46.40;19.27;;;;;;;;;;8329692;28;20056;-76
2022/01/13 18:16:27;;;;;;;50.38;19.77;;;;;;;;;;8329428;28;20041;-76
2022/01/13 18:20:33;;;;;;;51.20;19.27;;;;;;;;;;8329400;28;20057;-76
2022/01/13 18:24:37;;;;;;;57.03;22.00;;;;;;;;;;8346361;28;20049;-76
2022/01/13 18:28:40;;;;;;;54.78;22.15;;;;;;;;;;8361402;28;20056;-76
2022/01/13 18:32:44;;;;;;;54.10;19.40;;;;;;;;;;8361756;28;20099;-77
2022/01/13 18:36:49;;;;;;;53.28;21.30;;;;;;;;;;8361352;28;20045;-76
2022/01/13 18:41:41;;;;;;;210.07;58.05;;;;;;;;;;8364889;28;20040;-79
2022/01/13 18:46:02;;;;;;;57.80;20.38;;;;;;;;;;8365651;28;20045;-78
2022/01/13 18:50:10;;;;;;;68.28;23.17;;;;;;;;;;8366998;28;20528;-76
2022/01/13 18:54:20;;;;;;;85.45;29.70;;;;;;;;;;8367081;28;20041;-76
2022/01/13 18:58:33;;;;;;;68.55;23.33;;;;;;;;;;8366886;28;20044;-77
2022/01/13 19:02:42;;;;;;;57.33;23.17;;;;;;;;;;8366586;28;20040;-78
2022/01/13 19:07:02;;;;;;;55.25;19.52;;;;;;;;;;8366377;28;20390;-78
2022/01/13 19:11:10;;;;;;;53.20;18.57;;;;;;;;;;8345854;28;20477;-77
2022/01/13 19:15:18;;;;;;;64.88;20.13;;;;;;;;;;8367594;28;20465;-76
2022/01/13 19:19:32;;;;;;;58.58;19.70;;;;;;;;;;8366756;28;20492;-76
2022/01/13 19:23:39;;;;;;;61.25;16.63;;;;;;;;;;8366601;28;20072;-77
2022/01/13 19:27:45;;;;;;;47.33;17.40;;;;;;;;;;8360845;28;20049;-78
2022/01/13 19:31:49;;;;;;;48.90;18.77;;;;;;;;;;8364933;28;20060;-77
2022/01/13 19:35:52;;;;;;;48.17;16.48;;;;;;;;;;8364749;28;20114;-76
2022/01/13 19:39:55;;;;;;;53.15;19.25;;;;;;;;;;8363548;28;20070;-76
2022/01/13 19:44:00;;;;;;;50.58;17.92;;;;;;;;;;8365527;28;20491;-77
2022/01/13 19:48:05;;;;;;;43.67;16.67;;;;;;;;;;8366084;28;20099;-76
2022/01/13 19:52:09;;;;;;;46.08;16.17;;;;;;;;;;8365923;28;20102;-77
2022/01/13 19:56:12;;;;;;;47.83;17.40;;;;;;;;;;8380592;28;20458;-76
2022/01/13 20:00:19;;;;;;;41.05;15.98;;;;;;;;;;8386219;28;20041;-76
2022/01/13 20:04:25;;;;;;;45.17;16.75;;;;;;;;;;8340894;28;20326;-76
2022/01/13 20:08:29;;;;;;;45.95;17.33;;;;;;;;;;8365011;28;20397;-77
2022/01/13 20:12:33;;;;;;;47.15;16.17;;;;;;;;;;8362415;28;20056;-77
2022/01/13 20:16:41;;;;;;;46.55;16.48;;;;;;;;;;8364433;28;20051;-80
2022/01/13 20:20:45;;;;;;;48.28;17.88;;;;;;;;;;8364673;28;20053;-76
2022/01/13 20:24:48;;;;;;;44.55;17.00;;;;;;;;;;8362358;28;20060;-76
2022/01/13 20:28:51;;;;;;;53.47;18.48;;;;;;;;;;8364186;28;20098;-76
2022/01/13 20:32:56;;;;;;;41.92;16.70;;;;;;;;;;8364108;28;20045;-76
2022/01/13 20:36:59;;;;;;;50.33;18.50;;;;;;;;;;8363948;28;20083;-79
2022/01/13 20:41:04;;;;;;;47.65;16.40;;;;;;;;;;8361736;28;20451;-76
2022/01/13 20:45:12;;;;;;;48.50;17.55;;;;;;;;;;8363836;28;20045;-76
2022/01/13 20:49:18;;;;;;;39.45;17.98;;;;;;;;;;8364323;28;20370;-76
2022/01/13 20:53:22;;;;;;;48.60;17.75;;;;;;;;;;8361689;28;20444;-76
2022/01/13 20:57:25;;;;;;;45.00;17.20;;;;;;;;;;8363988;28;20045;-76
2022/01/13 21:01:28;;;;;;;47.85;18.33;;;;;;;;;;8361120;28;20120;-77
2022/01/13 21:05:34;;;;;;;63.17;22.30;;;;;;;;;;8363334;28;20052;-77
2022/01/13 21:09:37;;;;;;;48.33;17.67;;;;;;;;;;8362812;28;20045;-76
2022/01/13 21:13:41;;;;;;;43.30;17.38;;;;;;;;;;8363429;28;20408;-76
2022/01/13 21:17:44;;;;;;;44.85;17.00;;;;;;;;;;8363672;28;20056;-76
2022/01/13 21:21:50;;;;;;;56.95;18.90;;;;;;;;;;8363914;28;20076;-76
2022/01/13 21:25:53;;;;;;;46.33;16.70;;;;;;;;;;8363887;28;20049;-76
2022/01/13 21:29:57;;;;;;;48.95;17.95;;;;;;;;;;8364200;28;20048;-76
2022/01/13 21:34:00;;;;;;;43.42;16.17;;;;;;;;;;8363707;28;20094;-76
2022/01/13 21:38:05;;;;;;;44.13;15.63;;;;;;;;;;8364094;28;20048;-76
2022/01/13 21:42:10;;;;;;;44.90;17.58;;;;;;;;;;8363551;28;20049;-76
2022/01/13 21:46:13;;;;;;;40.22;17.33;;;;;;;;;;8363496;28;20048;-76
2022/01/13 21:50:17;;;;;;;44.65;15.30;;;;;;;;;;8363307;28;20049;-76
2022/01/13 21:54:22;;;;;;;57.28;20.25;;;;;;;;;;8363862;28;20656;-76
2022/01/13 21:58:25;;;;;;;46.28;16.13;;;;;;;;;;8363276;28;20052;-75
2022/01/13 22:02:28;;;;;;;51.47;19.33;;;;;;;;;;8363333;28;20127;-76
2022/01/13 22:06:31;;;;;;;55.78;17.67;;;;;;;;;;8363641;28;20099;-76
2022/01/13 22:10:39;;;;;;;51.17;17.35;;;;;;;;;;8363084;28;20396;-76
2022/01/13 22:14:46;;;;;;;53.50;17.50;;;;;;;;;;8368446;28;20052;-76
2022/01/13 22:18:49;;;;;;;42.63;15.95;;;;;;;;;;8369281;28;20052;-76
2022/01/13 22:22:52;;;;;;;51.75;18.05;;;;;;;;;;8369818;28;20045;-76
2022/01/13 22:26:56;;;;;;;44.28;16.05;;;;;;;;;;8369165;28;20053;-76
2022/01/13 22:31:00;;;;;;;39.10;15.85;;;;;;;;;;8369467;28;20133;-75
2022/01/13 22:35:03;;;;;;;52.97;18.67;;;;;;;;;;8369012;28;20506;-76
2022/01/13 22:39:07;;;;;;;47.17;15.75;;;;;;;;;;8368861;28;20067;-76
2022/01/13 22:43:12;;;;;;;46.40;16.58;;;;;;;;;;8368800;28;20052;-76
2022/01/13 22:47:15;;;;;;;50.03;16.60;;;;;;;;;;8368590;28;20053;-76
2022/01/13 22:51:18;;;;;;;45.65;16.02;;;;;;;;;;8368356;28;20069;-75
2022/01/13 22:55:20;;;;;;;43.58;14.15;;;;;;;;;;8368872;28;20083;-76
2022/01/13 22:59:25;;;;;;;48.03;16.73;;;;;;;;;;8368169;28;20045;-76
2022/01/13 23:03:28;;;;;;;44.63;15.23;;;;;;;;;;8368129;28;20431;-76
2022/01/13 23:07:31;;;;;;;41.80;14.77;;;;;;;;;;8367967;28;20546;-75
2022/01/13 23:11:33;;;;;;;44.65;14.90;;;;;;;;;;8367791;28;20067;-75
2022/01/13 23:24:18;;;;;;;48.45;16.73;;;;;;;;;;8366788;28;20041;-75
2022/01/13 23:28:21;;;;;;;36.80;14.52;;;;;;;;;;8367720;28;20374;-75
2022/01/13 23:32:25;;;;;;;39.63;13.40;;;;;;;;;;8367163;28;20133;-76
2022/01/13 23:36:28;;;;;;;42.60;16.48;;;;;;;;;;8367493;28;20568;-76
2022/01/13 23:40:31;;;;;;;39.40;16.35;;;;;;;;;;8366961;28;20052;-75
2022/01/13 23:44:38;;;;;;;37.78;13.45;;;;;;;;;;8366779;28;20076;-75
2022/01/13 23:48:42;;;;;;;37.17;15.00;;;;;;;;;;8367061;28;20053;-76
2022/01/13 23:52:45;;;;;;;37.95;14.40;;;;;;;;;;8366987;28;20485;-75
2022/01/13 23:56:48;;;;;;;41.47;16.27;;;;;;;;;;8366387;28;20044;-75
